Have a Safe July 4th! 

Flight Track Log - Related Links

Times and Time Zones

All times are in EDT time to prevent confusion due to time zone crossing. See the N960DL flight status page for this flight to view local times or setup timezone preferences in your user account.

Time Position Orientation Groundspeed Altitude Reporting Facility
EDT Latitude Longitude Course Direction KTS MPH feet Rate Location/Type
Sat 09:43:47 AM 39.1833 -76.7167 212° Southwest 194 223 1,600  Level Potomac TRACON
Sat 09:44:47 AM 39.1833 -76.8167 270° West 252 290 4,200 2,900 Climbing Potomac TRACON
Sat 09:45:47 AM 39.2000 -76.9000 284° West 282 325 7,400 3,287 Climbing Potomac TRACON
Sat 09:46:00 AM 39.1248 -77.2122 211° Southwest  Level FlightAware Approximate
Sat 09:46:42 AM 39.2167 -77.0000 282° West 283 326 10,500  Level Potomac TRACON
Sat 09:47:00 AM 39.0246 -77.2920 218° Southwest  Level FlightAware Approximate
Sat 09:47:42 AM 39.2167 -77.1167 270° West 338 389 11,800  Level Potomac TRACON
Sat 09:48:00 AM 38.9264 -77.3756 212° Southwest  Level FlightAware Approximate
Sat 09:48:43 AM 39.1500 -77.2167 229° Southwest 388 447 14,000  Level Potomac TRACON
Sat 09:49:37 AM 39.0667 -77.2833 212° Southwest 398 458 16,400 2,300 Climbing Potomac TRACON
Sat 09:50:43 AM 38.9500 -77.3667 209° Southwest 419 482 18,600 2,048 Climbing Potomac TRACON
Sat 09:51:43 AM 38.8500 -77.4333 207° Southwest 441 507 20,700 1,685 Climbing Potomac TRACON
Sat 09:54:06 AM 38.6192 -77.6192 212° Southwest 447 514 24,300 1,853 Climbing Washington Center
Sat 09:55:07 AM 38.5064 -77.7381 220° Southwest 454 522 27,000 1,820 Climbing Washington Center
Sat 09:56:08 AM 38.4269 -77.8603 230° Southwest 454 522 28,000 496 Climbing Washington Center
Sat 09:57:08 AM 38.3561 -77.9747 232° Southwest 459 528 28,000  Level Washington Center
Sat 09:58:06 AM 38.2806 -78.1019 233° Southwest 466 536 28,000  Level Washington Center
Sat 09:59:07 AM 38.1983 -78.2311 231° Southwest 466 536 28,000  Level Washington Center
Sat 10:00:08 AM 38.1225 -78.3578 233° Southwest 466 536 28,000  Level Washington Center
Sat 10:01:08 AM 38.0444 -78.4842 232° Southwest 461 531 28,000  Level Washington Center
Sat 10:02:06 AM 37.9619 -78.6206 233° Southwest 456 525 28,000  Level Washington Center
Sat 10:03:06 AM 37.8814 -78.7489 232° Southwest 456 525 28,000  Level Washington Center
Sat 10:04:07 AM 37.8139 -78.8617 233° Southwest 462 532 28,000  Level Washington Center
Sat 10:05:08 AM 37.7353 -78.9897 232° Southwest 462 532 28,000  Level Washington Center
Sat 10:06:08 AM 37.6544 -79.1147 231° Southwest 462 532 28,000  Level Washington Center
Sat 10:07:08 AM 37.5667 -79.2547 232° Southwest 462 532 28,000  Level Washington Center
Sat 10:08:06 AM 37.4856 -79.3817 231° Southwest 462 532 28,000  Level Washington Center
Sat 10:09:07 AM 37.4069 -79.4903 228° Southwest 469 540 28,000  Level Washington Center
Sat 10:10:07 AM 37.3275 -79.6192 232° Southwest 469 540 28,000  Level Washington Center
Sat 10:11:07 AM 37.2417 -79.7556 232° Southwest 469 540 28,000  Level Washington Center
Sat 10:12:06 AM 37.1578 -79.8814 230° Southwest 469 540 28,000  Level Washington Center
Sat 10:13:44 AM 37.0325 -80.0686 230° Southwest 466 536 28,000  Level Atlanta Center
Sat 10:14:44 AM 36.9531 -80.1919 231° Southwest 466 536 28,000  Level Atlanta Center
Sat 10:15:44 AM 36.8694 -80.3156 230° Southwest 466 536 28,000  Level Atlanta Center
Sat 10:16:44 AM 36.7794 -80.4519 231° Southwest 466 536 28,000  Level Atlanta Center
Sat 10:17:44 AM 36.7136 -80.5506 230° Southwest 466 536 28,000  Level Atlanta Center
Sat 10:18:44 AM 36.6275 -80.6811 231° Southwest 461 531 28,000  Level Atlanta Center
Sat 10:19:44 AM 36.5475 -80.8033 231° Southwest 461 531 28,000  Level Atlanta Center
Sat 10:20:44 AM 36.4672 -80.9281 231° Southwest 461 531 28,000  Level Atlanta Center
Sat 10:21:44 AM 36.3847 -81.0525 231° Southwest 467 537 28,000  Level Atlanta Center
Sat 10:22:44 AM 36.2961 -81.1844 230° Southwest 467 537 28,000  Level Atlanta Center
Sat 10:23:44 AM 36.2136 -81.3108 231° Southwest 467 537 28,000  Level Atlanta Center
Sat 10:24:44 AM 36.1328 -81.4292 230° Southwest 467 537 28,000  Level Atlanta Center
Sat 10:25:44 AM 36.0497 -81.5528 230° Southwest 467 537 28,000  Level Atlanta Center
Sat 10:26:44 AM 35.9686 -81.6733 230° Southwest 467 537 28,000  Level Atlanta Center
Sat 10:27:44 AM 35.8856 -81.7986 231° Southwest 467 537 28,000  Level Atlanta Center
Sat 10:28:44 AM 35.8000 -81.9161 228° Southwest 462 532 28,000  Level Atlanta Center
Sat 10:29:44 AM 35.7122 -82.0311 227° Southwest 462 532 28,000  Level Atlanta Center
Sat 10:30:44 AM 35.6242 -82.1406 225° Southwest 462 532 28,000  Level Atlanta Center
Sat 10:31:44 AM 35.5278 -82.2500 223° Southwest 462 532 28,000 -550 Level Atlanta Center
Sat 10:32:44 AM 35.4356 -82.3514 222° Southwest 462 532 26,900 -1,300 Descending Atlanta Center
Sat 10:33:44 AM 35.3431 -82.4550 222° Southwest 462 532 25,400 -1,450 Descending Atlanta Center
Sat 10:34:44 AM 35.2606 -82.5481 223° Southwest 439 505 24,000 -700 Descending Atlanta Center
Sat 10:35:44 AM 35.1761 -82.6411 222° Southwest 419 482 24,000  Level Atlanta Center
Sat 10:36:44 AM 35.0917 -82.7392 224° Southwest 414 476 24,000  Level Atlanta Center
Sat 10:37:44 AM 35.0153 -82.8189 221° Southwest 414 476 24,000  Level Atlanta Center
Sat 10:38:44 AM 34.9203 -82.9217 222° Southwest 414 476 24,000  Level Atlanta Center
Sat 10:39:44 AM 34.8356 -83.0164 223° Southwest 414 476 24,000  Level Atlanta Center
Sat 10:40:44 AM 34.7550 -83.1033 222° Southwest 414 476 24,000  Level Atlanta Center
Sat 10:41:44 AM 34.6658 -83.2028 223° Southwest 425 489 24,000  Level Atlanta Center
Sat 10:42:44 AM 34.5747 -83.3022 222° Southwest 434 499 24,000 -100 Level Atlanta Center
Sat 10:43:44 AM 34.4833 -83.4036 222° Southwest 446 513 23,800 -1,300 Descending Atlanta Center
Sat 10:44:44 AM 34.3942 -83.5050 223° Southwest 441 507 21,400 -2,300 Descending Atlanta Center
Sat 10:45:44 AM 34.3111 -83.5961 222° Southwest 427 491 19,200 -2,400 Descending Atlanta Center
Sat 10:46:44 AM 34.2236 -83.6947 223° Southwest 408 470 16,600 -2,500 Descending Atlanta Center
Sat 10:47:44 AM 34.1425 -83.7828 222° Southwest 395 455 14,200 -1,300 Descending Atlanta Center
Sat 10:48:44 AM 34.0633 -83.8683 222° Southwest 389 448 14,000 -450 Descending Atlanta Center
Sat 10:49:44 AM 33.9947 -83.9636 229° Southwest 388 447 13,300 -1,000 Descending Atlanta Center
Sat 10:50:44 AM 33.9300 -84.0614 231° Southwest 382 440 12,000 -650 Descending Atlanta Center
Sat 10:51:44 AM 33.8653 -84.1564 231° Southwest 376 433 12,000 -50 Level Atlanta Center
Sat 10:52:44 AM 33.8044 -84.2439 230° Southwest 361 415 11,900  Descending Atlanta Center
Sat 10:53:44 AM 33.7606 -84.3086 231° Southwest 319 367 12,000 -1,400 Climbing Atlanta Center
Sat 10:54:44 AM 33.7269 -84.3786 240° Southwest 261 300 9,100 -2,700 Descending Atlanta Center
Sat 10:55:44 AM 33.7308 -84.4608 273° West 240 276 6,600 -1,809 Descending Atlanta Center
Sat 10:57:00 AM 33.7333 -84.5667 272° West 228 262 5,000 -1,015 Descending Atlanta TRACON
Sat 10:58:00 AM 33.7333 -84.6333 270° West 200 230 4,300 -600 Descending Atlanta TRACON
Sat 10:59:00 AM 33.6833 -84.6500 196° South 194 223 3,800 -500 Descending Atlanta TRACON

Login

Don't have an account? Register now (free) for customized features, flight alerts, and more!